sensor_id;sensor_type;location;lat;lon;timestamp;pressure;altitude;pressure_sealevel;temperature;humidity
27864;BME280;15980;51.092;13.916;2022-08-19T00:02:38;97848.63;;;21.50;83.41
27864;BME280;15980;51.092;13.916;2022-08-19T00:07:41;97855.88;;;21.64;82.87
27864;BME280;15980;51.092;13.916;2022-08-19T00:12:46;97865.59;;;21.76;81.76
27864;BME280;15980;51.092;13.916;2022-08-19T00:17:49;97857.88;;;21.63;82.36
27864;BME280;15980;51.092;13.916;2022-08-19T00:22:52;97865.13;;;21.61;83.20
27864;BME280;15980;51.092;13.916;2022-08-19T00:27:58;97871.63;;;21.74;82.45
27864;BME280;15980;51.092;13.916;2022-08-19T00:33:01;97883.94;;;21.41;84.14
27864;BME280;15980;51.092;13.916;2022-08-19T00:38:04;97893.91;;;21.58;83.71
27864;BME280;15980;51.092;13.916;2022-08-19T00:43:10;97893.53;;;21.40;85.30
27864;BME280;15980;51.092;13.916;2022-08-19T00:48:14;97885.88;;;21.24;86.21
27864;BME280;15980;51.092;13.916;2022-08-19T00:53:20;97884.13;;;21.10;87.86
27864;BME280;15980;51.092;13.916;2022-08-19T00:58:29;97883.88;;;21.05;88.62
27864;BME280;15980;51.092;13.916;2022-08-19T01:03:34;97884.09;;;20.94;88.50
27864;BME280;15980;51.092;13.916;2022-08-19T01:08:37;97879.13;;;21.21;89.62
27864;BME280;15980;51.092;13.916;2022-08-19T01:13:41;97880.69;;;21.26;88.27
27864;BME280;15980;51.092;13.916;2022-08-19T01:18:45;97884.66;;;20.85;91.13
27864;BME280;15980;51.092;13.916;2022-08-19T01:23:49;97911.44;;;20.79;91.79
27864;BME280;15980;51.092;13.916;2022-08-19T01:28:55;97906.88;;;21.09;91.41
27864;BME280;15980;51.092;13.916;2022-08-19T01:33:59;97916.94;;;21.26;89.69
27864;BME280;15980;51.092;13.916;2022-08-19T01:39:07;97905.59;;;20.93;93.62
27864;BME280;15980;51.092;13.916;2022-08-19T01:44:11;97889.66;;;20.94;92.94
27864;BME280;15980;51.092;13.916;2022-08-19T01:49:16;97897.97;;;20.97;92.93
27864;BME280;15980;51.092;13.916;2022-08-19T01:54:22;97907.75;;;21.06;93.34
27864;BME280;15980;51.092;13.916;2022-08-19T01:59:26;97921.69;;;21.06;91.92
27864;BME280;15980;51.092;13.916;2022-08-19T02:04:29;97912.94;;;21.27;90.19
27864;BME280;15980;51.092;13.916;2022-08-19T02:09:33;97890.88;;;21.13;91.91
27864;BME280;15980;51.092;13.916;2022-08-19T02:14:37;97906.25;;;21.01;94.47
27864;BME280;15980;51.092;13.916;2022-08-19T02:19:39;97910.09;;;21.07;93.09
27864;BME280;15980;51.092;13.916;2022-08-19T02:24:44;97919.75;;;21.22;92.41
27864;BME280;15980;51.092;13.916;2022-08-19T02:29:49;97907.16;;;21.14;91.33
27864;BME280;15980;51.092;13.916;2022-08-19T02:34:52;97883.50;;;21.02;94.28
27864;BME280;15980;51.092;13.916;2022-08-19T02:39:57;97897.41;;;20.43;96.57
27864;BME280;15980;51.092;13.916;2022-08-19T02:45:00;97893.94;;;20.98;94.24
27864;BME280;15980;51.092;13.916;2022-08-19T02:50:04;97893.88;;;21.02;92.33
27864;BME280;15980;51.092;13.916;2022-08-19T02:55:09;97885.00;;;20.67;95.20
27864;BME280;15980;51.092;13.916;2022-08-19T03:00:13;97899.81;;;21.04;93.73
27864;BME280;15980;51.092;13.916;2022-08-19T03:05:16;97910.25;;;21.00;95.20
27864;BME280;15980;51.092;13.916;2022-08-19T03:10:21;97914.03;;;20.90;96.48
27864;BME280;15980;51.092;13.916;2022-08-19T03:15:24;97910.13;;;20.87;96.60
27864;BME280;15980;51.092;13.916;2022-08-19T03:20:27;97895.91;;;20.58;97.30
27864;BME280;15980;51.092;13.916;2022-08-19T03:25:36;97906.75;;;20.96;95.30
27864;BME280;15980;51.092;13.916;2022-08-19T03:30:40;97914.19;;;21.02;95.71
27864;BME280;15980;51.092;13.916;2022-08-19T03:35:43;97924.19;;;21.20;93.02
27864;BME280;15980;51.092;13.916;2022-08-19T03:40:47;97932.50;;;21.23;92.02
27864;BME280;15980;51.092;13.916;2022-08-19T03:46:00;97924.50;;;21.45;91.12
27864;BME280;15980;51.092;13.916;2022-08-19T03:51:04;97930.06;;;21.45;90.34
27864;BME280;15980;51.092;13.916;2022-08-19T03:56:10;97935.09;;;21.34;91.82
27864;BME280;15980;51.092;13.916;2022-08-19T04:01:18;97925.06;;;21.17;91.91
27864;BME280;15980;51.092;13.916;2022-08-19T04:06:23;97922.75;;;21.12;92.76
27864;BME280;15980;51.092;13.916;2022-08-19T04:11:30;97923.03;;;21.17;91.73
27864;BME280;15980;51.092;13.916;2022-08-19T04:16:34;97935.78;;;20.98;92.76
27864;BME280;15980;51.092;13.916;2022-08-19T04:21:36;97933.06;;;21.15;91.95
27864;BME280;15980;51.092;13.916;2022-08-19T04:26:41;97920.63;;;20.99;92.63
27864;BME280;15980;51.092;13.916;2022-08-19T04:31:44;97917.97;;;20.92;94.25
27864;BME280;15980;51.092;13.916;2022-08-19T04:36:48;97927.41;;;20.98;93.53
27864;BME280;15980;51.092;13.916;2022-08-19T04:41:54;97932.91;;;20.82;97.04
27864;BME280;15980;51.092;13.916;2022-08-19T04:47:14;97917.03;;;20.99;93.91
27864;BME280;15980;51.092;13.916;2022-08-19T04:52:17;97932.59;;;20.77;96.08
27864;BME280;15980;51.092;13.916;2022-08-19T04:57:21;97918.66;;;20.77;97.15
27864;BME280;15980;51.092;13.916;2022-08-19T05:02:25;97925.19;;;20.90;96.60
27864;BME280;15980;51.092;13.916;2022-08-19T05:07:28;97920.94;;;20.62;98.21
27864;BME280;15980;51.092;13.916;2022-08-19T05:12:33;97930.81;;;20.66;99.33
27864;BME280;15980;51.092;13.916;2022-08-19T05:17:37;97950.28;;;20.90;98.08
27864;BME280;15980;51.092;13.916;2022-08-19T05:22:59;97954.03;;;21.03;97.17
27864;BME280;15980;51.092;13.916;2022-08-19T05:28:04;97976.56;;;21.12;95.87
27864;BME280;15980;51.092;13.916;2022-08-19T05:33:07;97974.25;;;21.30;94.88
27864;BME280;15980;51.092;13.916;2022-08-19T05:38:11;97985.41;;;21.30;93.27
27864;BME280;15980;51.092;13.916;2022-08-19T05:43:16;97986.69;;;21.26;93.56
27864;BME280;15980;51.092;13.916;2022-08-19T05:48:19;97992.22;;;21.29;93.54
27864;BME280;15980;51.092;13.916;2022-08-19T05:53:22;98009.41;;;21.24;94.29
27864;BME280;15980;51.092;13.916;2022-08-19T05:58:26;98015.50;;;20.96;96.33
27864;BME280;15980;51.092;13.916;2022-08-19T06:03:29;98012.66;;;20.99;96.11
27864;BME280;15980;51.092;13.916;2022-08-19T06:08:32;98034.09;;;20.83;96.16
27864;BME280;15980;51.092;13.916;2022-08-19T06:13:36;98044.69;;;20.91;97.46
27864;BME280;15980;51.092;13.916;2022-08-19T06:18:40;98073.72;;;20.94;96.28
27864;BME280;15980;51.092;13.916;2022-08-19T06:23:44;98083.97;;;20.20;99.91
27864;BME280;15980;51.092;13.916;2022-08-19T06:28:50;98087.13;;;20.52;99.58
27864;BME280;15980;51.092;13.916;2022-08-19T06:33:53;98084.28;;;20.25;100.00
27864;BME280;15980;51.092;13.916;2022-08-19T06:38:57;98104.16;;;20.00;100.00
27864;BME280;15980;51.092;13.916;2022-08-19T06:44:02;98101.53;;;20.17;100.00
27864;BME280;15980;51.092;13.916;2022-08-19T06:49:06;98097.53;;;20.18;100.00
27864;BME280;15980;51.092;13.916;2022-08-19T06:54:11;98115.94;;;20.12;100.00
27864;BME280;15980;51.092;13.916;2022-08-19T06:59:18;98113.00;;;20.22;100.00
27864;BME280;15980;51.092;13.916;2022-08-19T07:04:22;98138.81;;;20.26;100.00
27864;BME280;15980;51.092;13.916;2022-08-19T07:09:26;98135.50;;;20.04;100.00
27864;BME280;15980;51.092;13.916;2022-08-19T07:14:31;98127.81;;;20.16;100.00
27864;BME280;15980;51.092;13.916;2022-08-19T07:19:34;98120.97;;;20.20;100.00
27864;BME280;15980;51.092;13.916;2022-08-19T07:24:37;98122.31;;;20.43;100.00
27864;BME280;15980;51.092;13.916;2022-08-19T07:29:42;98133.75;;;20.18;100.00
27864;BME280;15980;51.092;13.916;2022-08-19T07:34:45;98146.97;;;20.44;100.00
27864;BME280;15980;51.092;13.916;2022-08-19T07:39:48;98143.81;;;20.42;100.00
27864;BME280;15980;51.092;13.916;2022-08-19T07:44:52;98155.00;;;20.35;100.00
27864;BME280;15980;51.092;13.916;2022-08-19T07:49:55;98132.69;;;20.38;100.00
27864;BME280;15980;51.092;13.916;2022-08-19T07:54:58;98125.75;;;20.20;100.00
27864;BME280;15980;51.092;13.916;2022-08-19T08:00:07;98129.72;;;20.22;100.00
27864;BME280;15980;51.092;13.916;2022-08-19T08:05:10;98137.28;;;20.22;100.00
27864;BME280;15980;51.092;13.916;2022-08-19T08:10:31;98157.41;;;20.33;100.00
27864;BME280;15980;51.092;13.916;2022-08-19T08:15:36;98164.44;;;20.48;100.00
27864;BME280;15980;51.092;13.916;2022-08-19T08:20:42;98165.97;;;20.53;100.00
27864;BME280;15980;51.092;13.916;2022-08-19T08:25:45;98158.47;;;20.46;100.00
27864;BME280;15980;51.092;13.916;2022-08-19T08:30:50;98172.59;;;20.28;100.00
27864;BME280;15980;51.092;13.916;2022-08-19T08:35:53;98175.22;;;20.46;100.00
27864;BME280;15980;51.092;13.916;2022-08-19T08:41:01;98172.00;;;20.14;100.00
27864;BME280;15980;51.092;13.916;2022-08-19T08:46:13;98182.78;;;20.12;100.00
27864;BME280;15980;51.092;13.916;2022-08-19T08:51:22;98189.13;;;20.12;100.00
27864;BME280;15980;51.092;13.916;2022-08-19T08:56:27;98177.91;;;20.19;100.00
27864;BME280;15980;51.092;13.916;2022-08-19T09:01:36;98187.97;;;20.44;100.00
27864;BME280;15980;51.092;13.916;2022-08-19T09:06:44;98194.78;;;20.96;100.00
27864;BME280;15980;51.092;13.916;2022-08-19T09:11:56;98185.66;;;21.19;100.00
27864;BME280;15980;51.092;13.916;2022-08-19T09:17:04;98197.69;;;21.63;94.62
27864;BME280;15980;51.092;13.916;2022-08-19T09:22:09;98199.59;;;21.70;94.21
27864;BME280;15980;51.092;13.916;2022-08-19T09:27:12;98182.47;;;22.11;94.80
27864;BME280;15980;51.092;13.916;2022-08-19T09:32:17;98172.47;;;21.70;93.46
27864;BME280;15980;51.092;13.916;2022-08-19T09:37:20;98164.28;;;21.36;94.49
27864;BME280;15980;51.092;13.916;2022-08-19T09:42:22;98156.97;;;22.29;91.77
27864;BME280;15980;51.092;13.916;2022-08-19T09:47:27;98163.59;;;21.75;92.39
27864;BME280;15980;51.092;13.916;2022-08-19T09:52:30;98153.00;;;21.86;94.07
27864;BME280;15980;51.092;13.916;2022-08-19T09:57:33;98160.53;;;22.29;95.06
27864;BME280;15980;51.092;13.916;2022-08-19T10:02:37;98179.59;;;22.34;94.77
27864;BME280;15980;51.092;13.916;2022-08-19T10:07:40;98179.59;;;23.39;85.96
27864;BME280;15980;51.092;13.916;2022-08-19T10:12:43;98189.31;;;23.50;81.31
27864;BME280;15980;51.092;13.916;2022-08-19T10:17:50;98175.66;;;23.69;84.14
27864;BME280;15980;51.092;13.916;2022-08-19T10:22:53;98183.97;;;24.01;81.34
27864;BME280;15980;51.092;13.916;2022-08-19T10:27:56;98195.78;;;23.15;83.90
27864;BME280;15980;51.092;13.916;2022-08-19T10:33:00;98204.34;;;22.72;85.42
27864;BME280;15980;51.092;13.916;2022-08-19T10:38:04;98211.53;;;23.09;89.73
27864;BME280;15980;51.092;13.916;2022-08-19T10:43:07;98220.22;;;22.95;84.79
27864;BME280;15980;51.092;13.916;2022-08-19T10:48:12;98213.53;;;23.25;84.03
27864;BME280;15980;51.092;13.916;2022-08-19T10:53:14;98212.81;;;24.31;80.07
27864;BME280;15980;51.092;13.916;2022-08-19T10:58:20;98224.97;;;24.24;80.26
27864;BME280;15980;51.092;13.916;2022-08-19T11:03:29;98218.69;;;25.03;75.10
27864;BME280;15980;51.092;13.916;2022-08-19T11:08:33;98236.31;;;25.42;73.07
27864;BME280;15980;51.092;13.916;2022-08-19T11:13:39;98237.34;;;24.68;74.99
27864;BME280;15980;51.092;13.916;2022-08-19T11:18:47;98233.56;;;24.75;74.26
27864;BME280;15980;51.092;13.916;2022-08-19T11:23:52;98228.00;;;25.00;75.16
27864;BME280;15980;51.092;13.916;2022-08-19T11:28:56;98238.63;;;24.38;76.38
27864;BME280;15980;51.092;13.916;2022-08-19T11:34:02;98250.50;;;24.13;76.68
27864;BME280;15980;51.092;13.916;2022-08-19T11:39:06;98258.03;;;24.17;75.52
27864;BME280;15980;51.092;13.916;2022-08-19T11:44:10;98246.78;;;23.23;80.22
27864;BME280;15980;51.092;13.916;2022-08-19T11:49:18;98248.00;;;23.05;82.64
27864;BME280;15980;51.092;13.916;2022-08-19T11:54:22;98259.06;;;22.93;82.03
27864;BME280;15980;51.092;13.916;2022-08-19T11:59:25;98263.44;;;23.46;79.49
27864;BME280;15980;51.092;13.916;2022-08-19T12:04:30;98254.75;;;23.40;77.53
27864;BME280;15980;51.092;13.916;2022-08-19T12:09:33;98261.53;;;23.59;77.55
27864;BME280;15980;51.092;13.916;2022-08-19T12:14:37;98263.78;;;23.80;75.97
27864;BME280;15980;51.092;13.916;2022-08-19T12:19:41;98264.19;;;23.14;79.53
27864;BME280;15980;51.092;13.916;2022-08-19T12:24:44;98270.16;;;22.76;81.15
27864;BME280;15980;51.092;13.916;2022-08-19T12:29:47;98267.59;;;22.46;83.77
27864;BME280;15980;51.092;13.916;2022-08-19T12:34:51;98272.63;;;22.74;82.66
27864;BME280;15980;51.092;13.916;2022-08-19T12:39:54;98267.81;;;22.75;83.70
27864;BME280;15980;51.092;13.916;2022-08-19T12:44:57;98268.84;;;23.37;79.38
27864;BME280;15980;51.092;13.916;2022-08-19T12:50:01;98272.09;;;23.84;81.25
27864;BME280;15980;51.092;13.916;2022-08-19T12:55:07;98271.28;;;24.87;75.16
27864;BME280;15980;51.092;13.916;2022-08-19T13:00:13;98278.31;;;23.43;76.97
27864;BME280;15980;51.092;13.916;2022-08-19T13:05:20;98260.34;;;23.40;78.04
27864;BME280;15980;51.092;13.916;2022-08-19T13:10:26;98263.50;;;23.26;78.05
27864;BME280;15980;51.092;13.916;2022-08-19T13:15:32;98266.34;;;23.91;75.77
27864;BME280;15980;51.092;13.916;2022-08-19T13:20:38;98269.03;;;24.24;75.11
27864;BME280;15980;51.092;13.916;2022-08-19T13:25:42;98268.41;;;24.49;73.57
27864;BME280;15980;51.092;13.916;2022-08-19T13:30:46;98261.66;;;23.85;74.93
27864;BME280;15980;51.092;13.916;2022-08-19T13:36:08;98273.16;;;23.74;76.51
27864;BME280;15980;51.092;13.916;2022-08-19T13:41:11;98274.53;;;22.97;79.24
27864;BME280;15980;51.092;13.916;2022-08-19T13:46:15;98270.91;;;23.00;78.42
27864;BME280;15980;51.092;13.916;2022-08-19T13:51:19;98276.88;;;22.82;78.28
27864;BME280;15980;51.092;13.916;2022-08-19T13:56:22;98280.66;;;22.92;79.76
27864;BME280;15980;51.092;13.916;2022-08-19T14:01:26;98270.53;;;22.78;79.10
27864;BME280;15980;51.092;13.916;2022-08-19T14:06:31;98274.06;;;23.18;77.40
27864;BME280;15980;51.092;13.916;2022-08-19T14:11:33;98268.38;;;23.22;76.54
27864;BME280;15980;51.092;13.916;2022-08-19T14:16:36;98261.94;;;22.89;77.37
27864;BME280;15980;51.092;13.916;2022-08-19T14:21:40;98259.84;;;22.93;78.44
27864;BME280;15980;51.092;13.916;2022-08-19T14:26:43;98266.09;;;23.01;78.69
27864;BME280;15980;51.092;13.916;2022-08-19T14:31:47;98272.50;;;22.62;79.84
27864;BME280;15980;51.092;13.916;2022-08-19T14:36:53;98282.47;;;22.63;79.85
27864;BME280;15980;51.092;13.916;2022-08-19T14:41:56;98295.75;;;22.15;82.73
27864;BME280;15980;51.092;13.916;2022-08-19T14:47:00;98300.22;;;22.09;82.69
27864;BME280;15980;51.092;13.916;2022-08-19T14:52:05;98302.66;;;21.84;84.02
27864;BME280;15980;51.092;13.916;2022-08-19T14:57:11;98303.66;;;22.40;81.64
27864;BME280;15980;51.092;13.916;2022-08-19T15:02:14;98291.50;;;21.84;84.61
27864;BME280;15980;51.092;13.916;2022-08-19T15:07:19;98274.72;;;21.84;84.66
27864;BME280;15980;51.092;13.916;2022-08-19T15:12:21;98278.19;;;22.15;83.73
27864;BME280;15980;51.092;13.916;2022-08-19T15:17:25;98284.31;;;22.30;82.77
27864;BME280;15980;51.092;13.916;2022-08-19T15:22:29;98273.19;;;22.26;83.08
27864;BME280;15980;51.092;13.916;2022-08-19T15:27:33;98282.94;;;22.18;82.07
27864;BME280;15980;51.092;13.916;2022-08-19T15:32:37;98281.47;;;21.86;83.22
27864;BME280;15980;51.092;13.916;2022-08-19T15:37:42;98263.50;;;21.87;83.98
27864;BME280;15980;51.092;13.916;2022-08-19T15:42:47;98269.31;;;22.20;81.92
27864;BME280;15980;51.092;13.916;2022-08-19T15:47:50;98266.16;;;21.94;81.74
27864;BME280;15980;51.092;13.916;2022-08-19T15:52:58;98263.97;;;21.59;83.56
27864;BME280;15980;51.092;13.916;2022-08-19T15:58:04;98247.44;;;21.72;85.57
27864;BME280;15980;51.092;13.916;2022-08-19T16:03:25;98237.50;;;21.67;83.81
27864;BME280;15980;51.092;13.916;2022-08-19T16:08:46;98229.97;;;21.64;84.79
27864;BME280;15980;51.092;13.916;2022-08-19T16:13:51;98247.44;;;21.72;84.17
27864;BME280;15980;51.092;13.916;2022-08-19T16:18:55;98263.44;;;21.91;83.66
27864;BME280;15980;51.092;13.916;2022-08-19T16:24:02;98256.28;;;21.43;84.69
27864;BME280;15980;51.092;13.916;2022-08-19T16:29:06;98262.41;;;22.05;82.58
27864;BME280;15980;51.092;13.916;2022-08-19T16:34:10;98265.72;;;21.49;84.64
27864;BME280;15980;51.092;13.916;2022-08-19T16:39:15;98260.97;;;21.73;84.65
27864;BME280;15980;51.092;13.916;2022-08-19T16:44:18;98246.63;;;21.71;84.59
27864;BME280;15980;51.092;13.916;2022-08-19T16:49:21;98242.22;;;21.23;87.06
27864;BME280;15980;51.092;13.916;2022-08-19T16:54:27;98230.72;;;21.45;86.48
27864;BME280;15980;51.092;13.916;2022-08-19T16:59:32;98245.28;;;21.56;84.44
27864;BME280;15980;51.092;13.916;2022-08-19T17:04:36;98244.97;;;21.50;85.00
27864;BME280;15980;51.092;13.916;2022-08-19T17:09:40;98238.13;;;21.78;83.72
27864;BME280;15980;51.092;13.916;2022-08-19T17:14:43;98254.75;;;21.39;84.70
27864;BME280;15980;51.092;13.916;2022-08-19T17:19:46;98263.44;;;21.44;85.01
27864;BME280;15980;51.092;13.916;2022-08-19T17:24:51;98261.28;;;21.28;86.62
27864;BME280;15980;51.092;13.916;2022-08-19T17:29:54;98278.72;;;21.36;84.74
27864;BME280;15980;51.092;13.916;2022-08-19T17:35:00;98269.63;;;21.55;83.75
27864;BME280;15980;51.092;13.916;2022-08-19T17:40:07;98258.94;;;21.27;85.55
27864;BME280;15980;51.092;13.916;2022-08-19T17:45:11;98248.25;;;21.45;85.16
27864;BME280;15980;51.092;13.916;2022-08-19T17:50:14;98245.16;;;21.40;85.31
27864;BME280;15980;51.092;13.916;2022-08-19T17:55:19;98271.72;;;21.21;85.04
27864;BME280;15980;51.092;13.916;2022-08-19T18:00:22;98297.09;;;21.34;84.56
27864;BME280;15980;51.092;13.916;2022-08-19T18:05:27;98311.31;;;21.43;85.43
27864;BME280;15980;51.092;13.916;2022-08-19T18:10:32;98314.50;;;21.41;85.20
27864;BME280;15980;51.092;13.916;2022-08-19T18:15:34;98326.38;;;21.18;86.59
27864;BME280;15980;51.092;13.916;2022-08-19T18:20:37;98354.47;;;21.35;85.82
27864;BME280;15980;51.092;13.916;2022-08-19T18:25:42;98373.88;;;21.45;85.20
27864;BME280;15980;51.092;13.916;2022-08-19T18:30:45;98377.13;;;21.40;84.90
27864;BME280;15980;51.092;13.916;2022-08-19T18:35:49;98388.72;;;21.39;84.74
27864;BME280;15980;51.092;13.916;2022-08-19T18:40:54;98380.50;;;21.28;85.73
27864;BME280;15980;51.092;13.916;2022-08-19T18:46:15;98359.94;;;21.11;87.03
27864;BME280;15980;51.092;13.916;2022-08-19T18:51:35;98357.41;;;21.24;86.18
27864;BME280;15980;51.092;13.916;2022-08-19T18:56:39;98348.25;;;21.20;85.82
27864;BME280;15980;51.092;13.916;2022-08-19T19:01:45;98361.16;;;21.10;86.38
27864;BME280;15980;51.092;13.916;2022-08-19T19:06:50;98364.97;;;21.23;86.55
27864;BME280;15980;51.092;13.916;2022-08-19T19:11:58;98337.88;;;21.24;86.77
27864;BME280;15980;51.092;13.916;2022-08-19T19:17:03;98347.44;;;21.23;86.37
27864;BME280;15980;51.092;13.916;2022-08-19T19:22:06;98351.03;;;20.93;89.39
27864;BME280;15980;51.092;13.916;2022-08-19T19:27:14;98337.97;;;20.52;91.94
27864;BME280;15980;51.092;13.916;2022-08-19T19:32:21;98331.00;;;20.67;90.92
27864;BME280;15980;51.092;13.916;2022-08-19T19:37:24;98342.03;;;20.78;90.82
27864;BME280;15980;51.092;13.916;2022-08-19T19:42:28;98340.72;;;20.90;89.69
27864;BME280;15980;51.092;13.916;2022-08-19T19:47:31;98350.38;;;20.78;89.92
27864;BME280;15980;51.092;13.916;2022-08-19T19:52:34;98353.53;;;20.84;89.21
27864;BME280;15980;51.092;13.916;2022-08-19T19:57:39;98360.31;;;20.83;90.18
27864;BME280;15980;51.092;13.916;2022-08-19T20:02:41;98340.03;;;20.79;91.22
27864;BME280;15980;51.092;13.916;2022-08-19T20:07:49;98325.34;;;20.75;91.37
27864;BME280;15980;51.092;13.916;2022-08-19T20:13:12;98344.94;;;20.67;92.48
27864;BME280;15980;51.092;13.916;2022-08-19T20:18:16;98361.22;;;20.73;92.22
27864;BME280;15980;51.092;13.916;2022-08-19T20:23:21;98385.84;;;20.81;92.38
27864;BME280;15980;51.092;13.916;2022-08-19T20:28:25;98400.56;;;20.78;92.90
27864;BME280;15980;51.092;13.916;2022-08-19T20:33:29;98380.06;;;20.61;94.55
27864;BME280;15980;51.092;13.916;2022-08-19T20:38:32;98365.38;;;20.57;93.97
27864;BME280;15980;51.092;13.916;2022-08-19T20:43:37;98373.75;;;20.57;93.74
27864;BME280;15980;51.092;13.916;2022-08-19T20:48:40;98383.09;;;20.40;94.41
27864;BME280;15980;51.092;13.916;2022-08-19T20:53:43;98383.09;;;20.40;96.84
27864;BME280;15980;51.092;13.916;2022-08-19T20:58:48;98373.50;;;20.45;96.27
27864;BME280;15980;51.092;13.916;2022-08-19T21:03:53;98366.75;;;20.35;96.87
27864;BME280;15980;51.092;13.916;2022-08-19T21:08:56;98363.50;;;20.47;95.55
27864;BME280;15980;51.092;13.916;2022-08-19T21:14:00;98374.63;;;20.51;94.28
27864;BME280;15980;51.092;13.916;2022-08-19T21:19:04;98369.72;;;20.17;97.42
27864;BME280;15980;51.092;13.916;2022-08-19T21:24:07;98350.69;;;20.12;100.00
27864;BME280;15980;51.092;13.916;2022-08-19T21:29:11;98362.91;;;20.22;97.93
27864;BME280;15980;51.092;13.916;2022-08-19T21:34:14;98367.59;;;20.32;97.61
27864;BME280;15980;51.092;13.916;2022-08-19T21:39:17;98369.16;;;20.33;97.23
27864;BME280;15980;51.092;13.916;2022-08-19T21:44:22;98354.81;;;20.38;96.86
27864;BME280;15980;51.092;13.916;2022-08-19T21:49:24;98352.94;;;20.24;95.61
27864;BME280;15980;51.092;13.916;2022-08-19T21:54:29;98343.88;;;20.17;97.97
27864;BME280;15980;51.092;13.916;2022-08-19T21:59:33;98353.72;;;20.25;96.71
27864;BME280;15980;51.092;13.916;2022-08-19T22:04:36;98361.97;;;20.39;96.08
27864;BME280;15980;51.092;13.916;2022-08-19T22:09:42;98369.06;;;20.47;95.18
27864;BME280;15980;51.092;13.916;2022-08-19T22:14:47;98371.44;;;20.49;94.05
27864;BME280;15980;51.092;13.916;2022-08-19T22:19:51;98370.75;;;20.41;94.05
27864;BME280;15980;51.092;13.916;2022-08-19T22:25:00;98363.97;;;20.38;94.82
27864;BME280;15980;51.092;13.916;2022-08-19T22:30:07;98367.53;;;20.39;95.32
27864;BME280;15980;51.092;13.916;2022-08-19T22:35:11;98366.72;;;20.46;93.93
27864;BME280;15980;51.092;13.916;2022-08-19T22:40:14;98367.91;;;20.45;93.04
27864;BME280;15980;51.092;13.916;2022-08-19T22:45:18;98365.59;;;20.40;93.54
27864;BME280;15980;51.092;13.916;2022-08-19T22:50:23;98367.56;;;20.35;94.57
27864;BME280;15980;51.092;13.916;2022-08-19T22:55:26;98377.75;;;20.12;97.54
27864;BME280;15980;51.092;13.916;2022-08-19T23:00:32;98386.06;;;20.15;96.37
27864;BME280;15980;51.092;13.916;2022-08-19T23:05:35;98372.59;;;20.10;94.88
27864;BME280;15980;51.092;13.916;2022-08-19T23:10:38;98366.78;;;19.90;98.38
27864;BME280;15980;51.092;13.916;2022-08-19T23:15:43;98355.22;;;19.95;98.77
27864;BME280;15980;51.092;13.916;2022-08-19T23:20:46;98343.41;;;19.77;99.97
27864;BME280;15980;51.092;13.916;2022-08-19T23:25:50;98351.22;;;19.93;98.88
27864;BME280;15980;51.092;13.916;2022-08-19T23:30:55;98348.53;;;19.82;98.36
27864;BME280;15980;51.092;13.916;2022-08-19T23:36:00;98345.66;;;19.96;98.59
27864;BME280;15980;51.092;13.916;2022-08-19T23:41:06;98348.44;;;19.96;96.98
27864;BME280;15980;51.092;13.916;2022-08-19T23:46:12;98349.66;;;19.92;99.05
27864;BME280;15980;51.092;13.916;2022-08-19T23:51:19;98348.06;;;19.91;100.00
27864;BME280;15980;51.092;13.916;2022-08-19T23:56:22;98348.97;;;19.81;99.97
